createdAt,value
2022-10-05T00:01:42.925Z,14.94
2022-10-05T00:04:17.172Z,15.05
2022-10-05T00:06:45.670Z,15.07
2022-10-05T00:09:20.641Z,15.13
2022-10-05T00:11:47.874Z,15.12
2022-10-05T00:14:25.683Z,15.03
2022-10-05T00:16:52.208Z,15.11
2022-10-05T00:19:27.185Z,15.15
2022-10-05T00:21:58.719Z,15.16
2022-10-05T00:24:25.181Z,15.05
2022-10-05T00:26:56.911Z,15.03
2022-10-05T00:29:24.645Z,15.27
2022-10-05T00:31:51.371Z,15.20
2022-10-05T00:34:17.936Z,15.30
2022-10-05T00:36:45.303Z,15.34
2022-10-05T00:39:11.918Z,15.34
2022-10-05T00:41:55.616Z,15.33
2022-10-05T00:44:25.053Z,15.53
2022-10-05T00:46:55.818Z,15.46
2022-10-05T00:49:31.280Z,15.64
2022-10-05T00:52:06.886Z,15.64
2022-10-05T00:54:38.931Z,15.68
2022-10-05T00:57:28.421Z,15.72
2022-10-05T01:00:15.645Z,15.80
2022-10-05T01:03:03.801Z,15.78
2022-10-05T01:05:39.941Z,15.96
2022-10-05T01:08:24.910Z,15.91
2022-10-05T01:10:57.647Z,15.84
2022-10-05T01:14:16.510Z,15.81
2022-10-05T01:16:52.210Z,15.92
2022-10-05T01:19:54.806Z,16.03
2022-10-05T01:23:16.786Z,16.00
2022-10-05T01:25:55.146Z,15.97
2022-10-05T01:28:29.822Z,15.92
2022-10-05T01:31:10.518Z,16.12
2022-10-05T01:33:49.142Z,16.18
2022-10-05T01:36:31.809Z,16.12
2022-10-05T01:39:07.475Z,16.00
2022-10-05T01:41:43.016Z,16.03
2022-10-05T01:44:26.753Z,16.02
2022-10-05T01:47:27.355Z,16.13
2022-10-05T01:50:08.258Z,16.24
2022-10-05T01:52:46.243Z,16.30
2022-10-05T01:55:20.067Z,16.33
2022-10-05T01:58:18.022Z,16.38
2022-10-05T02:01:09.395Z,16.21
2022-10-05T02:03:38.824Z,16.31
2022-10-05T02:06:20.816Z,16.28
2022-10-05T02:08:50.940Z,16.22
2022-10-05T02:11:18.486Z,16.16
2022-10-05T02:13:50.771Z,16.15
2022-10-05T02:16:22.980Z,16.14
2022-10-05T02:18:58.586Z,16.28
2022-10-05T02:21:26.805Z,16.28
2022-10-05T02:23:57.126Z,16.13
2022-10-05T02:26:25.534Z,16.18
2022-10-05T02:29:03.031Z,16.17
2022-10-05T02:31:36.365Z,16.21
2022-10-05T02:34:22.728Z,16.16
2022-10-05T02:36:59.159Z,16.15
2022-10-05T02:40:04.835Z,16.20
2022-10-05T02:42:57.065Z,16.16
2022-10-05T02:45:46.134Z,16.12
2022-10-05T02:48:28.474Z,16.19
2022-10-05T02:51:28.632Z,16.27
2022-10-05T02:54:14.216Z,16.27
2022-10-05T02:57:21.129Z,16.33
2022-10-05T02:59:53.189Z,16.30
2022-10-05T03:02:24.758Z,16.33
2022-10-05T03:05:00.179Z,16.33
2022-10-05T03:07:34.308Z,16.35
2022-10-05T03:10:06.627Z,16.35
2022-10-05T03:12:51.393Z,16.43
2022-10-05T03:15:55.364Z,16.40
2022-10-05T03:18:34.125Z,16.38
2022-10-05T03:21:08.515Z,16.38
2022-10-05T03:23:45.400Z,16.54
2022-10-05T03:26:59.767Z,16.55
2022-10-05T03:29:41.101Z,16.60
2022-10-05T03:32:32.324Z,16.50
2022-10-05T03:35:12.179Z,16.52
2022-10-05T03:37:59.206Z,16.57
2022-10-05T03:40:43.848Z,16.52
2022-10-05T03:43:22.491Z,16.60
2022-10-05T03:46:00.499Z,16.55
2022-10-05T03:48:38.125Z,16.55
2022-10-05T03:51:16.185Z,16.51
2022-10-05T03:53:47.394Z,16.53
2022-10-05T03:56:33.549Z,16.49
2022-10-05T03:59:04.063Z,16.50
2022-10-05T04:01:43.540Z,16.45
2022-10-05T04:04:16.141Z,16.48
2022-10-05T04:06:47.806Z,16.53
2022-10-05T04:09:24.311Z,16.60
2022-10-05T04:11:52.025Z,16.61
2022-10-05T04:14:44.517Z,16.73
2022-10-05T04:17:17.872Z,16.63
2022-10-05T04:19:49.635Z,16.59
2022-10-05T04:22:21.222Z,16.47
2022-10-05T04:24:53.303Z,16.40
2022-10-05T04:27:22.616Z,16.43
2022-10-05T04:29:54.145Z,16.53
2022-10-05T04:32:35.891Z,16.30
2022-10-05T04:35:13.622Z,16.00
2022-10-05T04:38:18.685Z,15.90
2022-10-05T04:41:25.271Z,15.93
2022-10-05T04:44:06.410Z,15.90
2022-10-05T04:47:01.315Z,15.89
2022-10-05T04:50:13.043Z,15.79
2022-10-05T04:53:28.459Z,15.79
2022-10-05T04:56:20.940Z,15.78
2022-10-05T04:58:53.401Z,15.92
2022-10-05T05:01:46.437Z,15.85
2022-10-05T05:04:34.166Z,15.89
2022-10-05T05:07:23.373Z,15.91
2022-10-05T05:09:57.444Z,15.94
2022-10-05T05:12:23.813Z,15.87
2022-10-05T05:14:56.294Z,15.95
2022-10-05T05:17:52.772Z,15.88
2022-10-05T05:20:24.658Z,15.78
2022-10-05T05:23:08.275Z,15.84
2022-10-05T05:25:48.377Z,15.84
2022-10-05T05:28:23.375Z,15.88
2022-10-05T05:31:02.301Z,15.89
2022-10-05T05:33:33.651Z,15.98
2022-10-05T05:36:11.180Z,16.22
2022-10-05T05:39:04.903Z,16.11
2022-10-05T05:41:39.260Z,16.08
2022-10-05T05:44:26.774Z,16.02
2022-10-05T05:47:08.093Z,16.16
2022-10-05T05:50:10.971Z,16.19
2022-10-05T05:52:52.712Z,16.20
2022-10-05T05:55:42.684Z,16.30
2022-10-05T05:58:19.409Z,16.30
2022-10-05T06:01:04.268Z,16.35
2022-10-05T06:03:43.661Z,16.44
2022-10-05T06:06:12.157Z,16.48
2022-10-05T06:08:43.440Z,16.53
2022-10-05T06:11:22.918Z,16.52
2022-10-05T06:13:49.679Z,16.66
2022-10-05T06:16:37.204Z,16.65
2022-10-05T06:19:16.205Z,16.65
2022-10-05T06:21:53.673Z,16.71
2022-10-05T06:24:37.500Z,16.83
2022-10-05T06:27:22.284Z,16.85
2022-10-05T06:29:51.541Z,16.92
2022-10-05T06:32:30.879Z,16.89
2022-10-05T06:35:07.671Z,17.09
2022-10-05T06:38:12.275Z,17.12
2022-10-05T06:41:00.078Z,17.20
2022-10-05T06:43:39.533Z,17.25
2022-10-05T06:46:14.593Z,17.21
2022-10-05T06:48:51.420Z,17.16
2022-10-05T06:51:32.226Z,17.39
2022-10-05T06:54:07.498Z,17.40
2022-10-05T06:56:45.706Z,17.37
2022-10-05T06:59:43.332Z,17.50
2022-10-05T07:02:25.901Z,17.42
2022-10-05T07:05:30.048Z,17.62
2022-10-05T07:08:02.999Z,17.58
2022-10-05T07:10:51.674Z,17.55
2022-10-05T07:13:45.959Z,17.70
2022-10-05T07:16:22.660Z,17.72
2022-10-05T07:19:25.670Z,17.81
2022-10-05T07:22:23.569Z,17.75
2022-10-05T07:24:58.121Z,17.81
2022-10-05T07:27:28.619Z,17.93
2022-10-05T07:30:04.647Z,18.01
2022-10-05T07:32:45.851Z,18.11
2022-10-05T07:36:03.286Z,18.14
2022-10-05T07:38:33.006Z,18.19
2022-10-05T07:41:06.281Z,18.07
2022-10-05T07:44:01.580Z,17.93
2022-10-05T07:46:41.470Z,18.05
2022-10-05T07:49:32.199Z,17.86
2022-10-05T07:52:01.971Z,17.87
2022-10-05T07:54:45.302Z,17.88
2022-10-05T07:57:30.282Z,17.91
2022-10-05T08:00:06.867Z,18.04
2022-10-05T08:02:44.431Z,18.39
2022-10-05T08:05:31.986Z,18.54
2022-10-05T08:08:06.866Z,19.17
2022-10-05T08:10:44.718Z,19.04
2022-10-05T08:13:21.277Z,19.26
2022-10-05T08:15:51.890Z,19.38
2022-10-05T08:18:49.323Z,19.59
2022-10-05T08:21:23.363Z,19.75
2022-10-05T08:24:00.242Z,19.74
2022-10-05T08:27:01.758Z,19.54
2022-10-05T08:29:39.674Z,19.43
2022-10-05T08:32:12.588Z,19.27
2022-10-05T08:34:48.263Z,19.39
2022-10-05T08:37:27.599Z,19.55
2022-10-05T08:40:19.168Z,19.57
2022-10-05T08:43:30.594Z,19.75
2022-10-05T08:46:15.084Z,19.89
2022-10-05T08:49:05.711Z,20.12
2022-10-05T08:51:52.032Z,20.23
2022-10-05T08:54:36.611Z,20.13
2022-10-05T08:57:32.774Z,20.10
2022-10-05T09:00:09.175Z,20.10
2022-10-05T09:02:39.996Z,20.03
2022-10-05T09:05:27.972Z,19.84
2022-10-05T09:08:00.342Z,19.71
2022-10-05T09:10:51.632Z,19.69
2022-10-05T09:13:47.278Z,19.67
2022-10-05T09:16:23.864Z,19.38
2022-10-05T09:19:22.955Z,19.20
2022-10-05T09:22:12.082Z,19.24
2022-10-05T09:24:54.693Z,19.28
2022-10-05T09:27:34.229Z,19.27
2022-10-05T09:30:28.573Z,19.37
2022-10-05T09:33:16.388Z,19.28
2022-10-05T09:36:07.573Z,19.42
2022-10-05T09:38:57.347Z,19.41
2022-10-05T09:41:41.735Z,19.54
2022-10-05T09:44:36.433Z,19.39
2022-10-05T09:47:18.127Z,19.42
2022-10-05T09:49:54.033Z,19.64
2022-10-05T09:53:02.090Z,19.91
2022-10-05T09:55:53.738Z,19.94
2022-10-05T09:58:28.347Z,19.96
2022-10-05T10:01:09.238Z,19.99
2022-10-05T10:04:16.223Z,19.89
2022-10-05T10:07:22.765Z,19.83
2022-10-05T10:10:32.094Z,19.89
2022-10-05T10:13:36.558Z,19.73
2022-10-05T10:16:09.488Z,19.83
2022-10-05T10:18:52.702Z,20.10
2022-10-05T10:21:34.587Z,19.99
2022-10-05T10:24:15.827Z,20.24
2022-10-05T10:27:07.569Z,20.39
2022-10-05T10:29:42.894Z,20.69
2022-10-05T10:32:24.518Z,20.82
2022-10-05T10:35:08.671Z,21.10
2022-10-05T10:38:02.625Z,21.40
2022-10-05T10:41:06.759Z,21.69
2022-10-05T10:43:58.413Z,21.85
2022-10-05T10:46:53.967Z,21.93
2022-10-05T10:49:32.790Z,21.89
2022-10-05T10:52:43.878Z,21.93
2022-10-05T10:55:38.433Z,22.18
2022-10-05T10:58:53.170Z,22.45
2022-10-05T11:01:26.560Z,22.39
2022-10-05T11:04:04.440Z,22.38
2022-10-05T11:07:06.656Z,22.41
2022-10-05T11:10:20.031Z,22.21
2022-10-05T11:13:12.404Z,22.31
2022-10-05T11:15:56.207Z,22.57
2022-10-05T11:18:30.718Z,22.57
2022-10-05T11:21:21.739Z,22.39
2022-10-05T11:23:56.852Z,22.65
2022-10-05T11:27:03.286Z,22.76
2022-10-05T11:29:35.735Z,22.35
2022-10-05T11:32:21.074Z,22.44
2022-10-05T11:35:03.533Z,22.48
2022-10-05T11:37:53.615Z,22.61
2022-10-05T11:40:38.778Z,22.68
2022-10-05T11:43:29.964Z,22.83
2022-10-05T11:46:15.143Z,22.83
2022-10-05T11:48:50.685Z,22.77
2022-10-05T11:51:34.170Z,22.70
2022-10-05T11:54:09.697Z,22.99
2022-10-05T11:56:40.387Z,23.07
2022-10-05T11:59:21.293Z,22.82
2022-10-05T12:01:52.959Z,22.71
2022-10-05T12:04:45.333Z,22.74
2022-10-05T12:07:24.607Z,22.96
2022-10-05T12:10:16.854Z,23.03
2022-10-05T12:13:02.569Z,23.08
2022-10-05T12:15:37.408Z,23.45
2022-10-05T12:18:13.590Z,23.44
2022-10-05T12:20:54.867Z,23.54
2022-10-05T12:23:47.793Z,23.36
2022-10-05T12:26:18.532Z,23.34
2022-10-05T12:28:47.937Z,23.15
2022-10-05T12:31:20.353Z,23.29
2022-10-05T12:34:01.791Z,23.66
2022-10-05T12:37:03.193Z,23.88
2022-10-05T12:39:47.280Z,23.69
2022-10-05T12:42:30.367Z,23.65
2022-10-05T12:45:10.266Z,23.62
2022-10-05T12:47:39.935Z,23.63
2022-10-05T12:50:18.440Z,23.79
2022-10-05T12:52:50.816Z,23.46
2022-10-05T12:55:26.206Z,23.35
2022-10-05T12:58:07.765Z,23.49
2022-10-05T13:00:41.789Z,23.31
2022-10-05T13:03:28.597Z,23.24
2022-10-05T13:06:07.657Z,23.26
2022-10-05T13:08:50.433Z,23.36
2022-10-05T13:11:42.816Z,23.25
2022-10-05T13:14:31.376Z,23.21
2022-10-05T13:17:12.646Z,23.27
2022-10-05T13:19:57.388Z,23.32
2022-10-05T13:22:30.895Z,23.24
2022-10-05T13:25:33.438Z,23.10
2022-10-05T13:28:30.294Z,22.79
2022-10-05T13:31:14.227Z,22.72
2022-10-05T13:34:30.505Z,22.83
2022-10-05T13:37:08.503Z,23.07
2022-10-05T13:40:09.093Z,22.91
2022-10-05T13:43:15.592Z,22.95
2022-10-05T13:46:14.144Z,23.06
2022-10-05T13:48:58.306Z,23.10
2022-10-05T13:51:32.572Z,22.96
2022-10-05T13:54:41.124Z,22.74
2022-10-05T13:57:51.589Z,22.81
2022-10-05T14:00:27.034Z,22.75
2022-10-05T14:03:04.287Z,22.56
2022-10-05T14:05:38.181Z,22.47
2022-10-05T14:08:08.711Z,22.54
2022-10-05T14:10:46.795Z,22.60
2022-10-05T14:13:24.378Z,22.49
2022-10-05T14:16:19.779Z,22.13
2022-10-05T14:19:42.137Z,22.08
2022-10-05T14:22:25.051Z,22.20
2022-10-05T14:24:57.241Z,22.24
2022-10-05T14:27:33.333Z,22.20
2022-10-05T14:30:23.632Z,22.22
2022-10-05T14:33:08.919Z,22.49
2022-10-05T14:35:58.279Z,22.58
2022-10-05T14:38:58.139Z,22.58
2022-10-05T14:41:28.300Z,22.71
2022-10-05T14:44:17.327Z,22.83
2022-10-05T14:46:58.269Z,22.89
2022-10-05T14:49:38.991Z,22.67
2022-10-05T14:52:38.757Z,22.81
2022-10-05T14:55:21.457Z,22.95
2022-10-05T14:58:12.831Z,22.88
2022-10-05T15:01:13.892Z,22.98
2022-10-05T15:03:48.493Z,23.05
2022-10-05T15:06:26.886Z,23.03
2022-10-05T15:09:17.915Z,23.02
2022-10-05T15:11:47.442Z,22.96
2022-10-05T15:14:31.769Z,23.04
2022-10-05T15:17:03.184Z,22.96
2022-10-05T15:20:02.394Z,22.86
2022-10-05T15:22:42.682Z,22.79
2022-10-05T15:25:22.224Z,22.80
2022-10-05T15:28:10.031Z,22.56
2022-10-05T15:30:41.398Z,22.51
2022-10-05T15:33:19.665Z,22.45
2022-10-05T15:36:02.128Z,22.39
2022-10-05T15:38:50.684Z,22.47
2022-10-05T15:41:22.230Z,22.44
2022-10-05T15:44:06.624Z,22.37
2022-10-05T15:46:40.472Z,22.22
2022-10-05T15:49:49.499Z,22.15
2022-10-05T15:53:11.039Z,22.12
2022-10-05T15:55:58.515Z,21.97
2022-10-05T15:58:48.745Z,21.95
2022-10-05T16:01:29.230Z,21.93
2022-10-05T16:04:03.685Z,21.83
2022-10-05T16:06:54.900Z,21.81
2022-10-05T16:09:34.228Z,21.58
2022-10-05T16:12:09.852Z,21.41
2022-10-05T16:14:45.680Z,21.38
2022-10-05T16:17:51.245Z,21.41
2022-10-05T16:20:28.950Z,21.24
2022-10-05T16:23:27.679Z,21.24
2022-10-05T16:26:07.142Z,21.19
2022-10-05T16:28:42.291Z,21.13
2022-10-05T16:31:18.651Z,21.12
2022-10-05T16:33:55.224Z,21.09
2022-10-05T16:36:46.781Z,21.02
2022-10-05T16:39:20.545Z,21.05
2022-10-05T16:41:56.446Z,20.94
2022-10-05T16:44:34.783Z,20.92
2022-10-05T16:47:22.910Z,20.88
2022-10-05T16:50:02.403Z,20.85
2022-10-05T16:52:28.993Z,20.82
2022-10-05T16:55:03.126Z,20.74
2022-10-05T16:57:32.156Z,20.78
2022-10-05T17:00:19.820Z,20.81
2022-10-05T17:03:04.975Z,20.77
2022-10-05T17:05:47.843Z,20.77
2022-10-05T17:08:46.623Z,20.68
2022-10-05T17:11:40.190Z,20.61
2022-10-05T17:14:15.039Z,20.68
2022-10-05T17:17:03.450Z,20.74
2022-10-05T17:19:35.935Z,20.60
2022-10-05T17:22:05.343Z,20.58
2022-10-05T17:25:08.573Z,20.56
2022-10-05T17:27:50.863Z,20.58
2022-10-05T17:30:31.648Z,20.54
2022-10-05T17:33:04.534Z,20.59
2022-10-05T17:35:51.185Z,20.56
2022-10-05T17:38:48.365Z,20.63
2022-10-05T17:41:16.765Z,20.46
2022-10-05T17:44:13.268Z,20.39
2022-10-05T17:47:03.788Z,20.40
2022-10-05T17:50:17.311Z,20.15
2022-10-05T17:53:03.338Z,20.13
2022-10-05T17:55:32.878Z,20.19
2022-10-05T17:58:27.402Z,20.14
2022-10-05T18:00:57.213Z,20.29
2022-10-05T18:03:36.299Z,20.23
2022-10-05T18:06:24.681Z,20.37
2022-10-05T18:09:13.743Z,20.40
2022-10-05T18:11:44.903Z,20.58
2022-10-05T18:14:18.723Z,20.46
2022-10-05T18:17:05.381Z,20.47
2022-10-05T18:19:33.160Z,20.45
2022-10-05T18:22:17.809Z,20.35
2022-10-05T18:24:52.977Z,20.33
2022-10-05T18:27:34.288Z,20.33
2022-10-05T18:30:16.857Z,20.47
2022-10-05T18:33:05.124Z,20.50
2022-10-05T18:36:01.018Z,20.55
2022-10-05T18:38:45.327Z,20.55
2022-10-05T18:41:21.062Z,20.61
2022-10-05T18:43:59.378Z,20.64
2022-10-05T18:46:38.059Z,20.54
2022-10-05T18:49:38.632Z,20.44
2022-10-05T18:52:13.333Z,20.25
2022-10-05T18:54:55.067Z,20.36
2022-10-05T18:57:53.711Z,20.39
2022-10-05T19:00:21.911Z,20.41
2022-10-05T19:02:50.021Z,20.32
2022-10-05T19:05:46.228Z,20.27
2022-10-05T19:08:18.761Z,20.20
2022-10-05T19:11:05.017Z,20.20
2022-10-05T19:13:51.007Z,20.21
2022-10-05T19:16:48.761Z,20.30
2022-10-05T19:19:34.062Z,20.31
2022-10-05T19:22:31.130Z,20.31
2022-10-05T19:25:14.946Z,20.53
2022-10-05T19:27:56.868Z,20.50
2022-10-05T19:30:25.236Z,20.48
2022-10-05T19:33:13.309Z,20.42
2022-10-05T19:35:58.633Z,20.47
2022-10-05T19:38:57.693Z,20.51
2022-10-05T19:41:54.626Z,20.83
2022-10-05T19:44:29.845Z,20.94
2022-10-05T19:47:05.885Z,21.05
2022-10-05T19:49:51.533Z,21.08
2022-10-05T19:52:41.059Z,21.19
2022-10-05T19:55:13.801Z,21.29
2022-10-05T19:57:57.583Z,21.21
2022-10-05T20:00:25.423Z,21.29
2022-10-05T20:03:14.537Z,21.31
2022-10-05T20:05:41.105Z,21.26
2022-10-05T20:08:15.016Z,21.31
2022-10-05T20:10:41.431Z,21.26
2022-10-05T20:13:19.595Z,21.39
2022-10-05T20:16:33.643Z,21.50
2022-10-05T20:19:18.655Z,21.44
2022-10-05T20:22:00.435Z,21.73
2022-10-05T20:24:28.334Z,21.48
2022-10-05T20:27:02.712Z,21.22
2022-10-05T20:29:30.440Z,21.15
2022-10-05T20:31:57.460Z,20.98
2022-10-05T20:34:24.389Z,20.77
2022-10-05T20:36:51.507Z,20.70
2022-10-05T20:39:18.827Z,20.72
2022-10-05T20:41:45.884Z,20.76
2022-10-05T20:44:13.210Z,20.77
2022-10-05T20:46:42.605Z,20.87
2022-10-05T20:49:10.985Z,20.96
2022-10-05T20:51:38.551Z,20.98
2022-10-05T20:54:05.303Z,20.73
2022-10-05T20:56:32.320Z,21.01
2022-10-05T20:58:58.892Z,20.91
2022-10-05T21:01:30.232Z,20.89
2022-10-05T21:03:56.677Z,20.79
2022-10-05T21:06:26.251Z,20.83
2022-10-05T21:08:52.783Z,20.72
2022-10-05T21:11:19.407Z,20.80
2022-10-05T21:13:45.982Z,20.73
2022-10-05T21:16:16.827Z,20.80
2022-10-05T21:18:45.367Z,20.82
2022-10-05T21:21:11.794Z,20.79
2022-10-05T21:23:38.204Z,20.83
2022-10-05T21:26:04.606Z,20.73
2022-10-05T21:28:31.765Z,20.75
2022-10-05T21:30:58.655Z,20.83
2022-10-05T21:33:25.769Z,20.78
2022-10-05T21:35:52.647Z,20.85
2022-10-05T21:38:19.043Z,20.77
2022-10-05T21:40:45.676Z,20.76
2022-10-05T21:43:13.361Z,20.70
2022-10-05T21:45:40.163Z,20.80
2022-10-05T21:48:07.594Z,20.83
2022-10-05T21:50:34.176Z,20.83
2022-10-05T21:53:02.563Z,20.71
2022-10-05T21:55:29.019Z,20.84
2022-10-05T21:57:57.079Z,20.98
2022-10-05T22:00:23.486Z,20.83
2022-10-05T22:02:49.900Z,20.87
2022-10-05T22:05:16.510Z,20.93
2022-10-05T22:07:43.000Z,20.95
2022-10-05T22:10:09.733Z,21.00
2022-10-05T22:12:36.147Z,20.95
2022-10-05T22:15:03.010Z,20.83
2022-10-05T22:17:31.726Z,20.84
2022-10-05T22:19:59.099Z,20.77
2022-10-05T22:22:26.660Z,20.48
2022-10-05T22:24:54.470Z,19.91
2022-10-05T22:27:25.835Z,19.16
2022-10-05T22:29:52.523Z,18.97
2022-10-05T22:32:18.919Z,18.49
2022-10-05T22:34:45.718Z,18.48
2022-10-05T22:37:15.775Z,18.59
2022-10-05T22:39:43.021Z,18.61
2022-10-05T22:42:09.845Z,18.41
2022-10-05T22:44:36.449Z,18.53
2022-10-05T22:47:03.497Z,18.47
2022-10-05T22:49:29.904Z,18.48
2022-10-05T22:51:56.497Z,18.42
2022-10-05T22:54:26.288Z,18.35
2022-10-05T22:56:55.246Z,18.52
2022-10-05T22:59:21.622Z,18.57
2022-10-05T23:01:48.095Z,18.74
2022-10-05T23:04:14.525Z,18.62
2022-10-05T23:06:40.962Z,18.45
2022-10-05T23:09:07.367Z,18.44
2022-10-05T23:11:33.818Z,18.46
2022-10-05T23:14:00.448Z,18.41
2022-10-05T23:16:28.246Z,18.41
2022-10-05T23:18:55.099Z,18.42
2022-10-05T23:21:23.829Z,18.88
2022-10-05T23:23:51.272Z,18.46
2022-10-05T23:26:25.033Z,18.52
2022-10-05T23:28:51.703Z,18.38
2022-10-05T23:31:21.820Z,18.39
2022-10-05T23:33:48.631Z,18.31
2022-10-05T23:36:17.583Z,18.42
2022-10-05T23:38:44.328Z,18.22
2022-10-05T23:41:11.010Z,18.13
2022-10-05T23:43:37.439Z,17.83
2022-10-05T23:46:06.133Z,17.90
2022-10-05T23:48:33.194Z,17.94
2022-10-05T23:50:59.967Z,17.92
2022-10-05T23:53:26.546Z,17.79
2022-10-05T23:55:53.566Z,18.00
2022-10-05T23:58:20.965Z,17.77
